Axantha II — CQKN — position and weather

sailwx.info

Track history (hours):
 
Tides and Currents Weather Stations Pressure Air Temp Water Temp Dewpoint Dewpoint Depression Visibility Wind Speed Wind Dir Waves Ship Positions

Axantha II

Last reported at 2015-Aug-01 13:19 UTC. Time now 2015-Aug-01 18:14 UTC.
Position N 43°04' E 009°49'.

Length 43 m; draft 2.8 m.

Type: Pleasure craft. MMSI: 255804580.

Date/timePositionNaut miles runAvg speedWind from/ knotsBaromVisibWave heightAir tempDewpointWater temp
2015-Aug-01 13:19N 43°04' E 009°49'0 0.0
2015-Aug-01 12:33N 43°04' E 009°49'69 1.5
2015-Jul-30 15:30N 42°21' E 011°02'149 7.9
2015-Jul-29 20:29N 40°51' E 013°42'1010.8
2015-Jul-29 19:33N 40°47' E 013°54'5 5.3
2015-Jul-29 18:33N 40°44' E 014°00'0 0.0
2015-Jul-29 17:33N 40°44' E 014°00'0 0.0
2015-Jul-29 16:33N 40°44' E 014°00'0 0.0
2015-Jul-29 15:33N 40°44' E 014°00'0 0.0
2015-Jul-29 14:33N 40°44' E 014°00'0 0.0
2015-Jul-29 13:33N 40°44' E 014°00'0 0.0
2015-Jul-29 12:33N 40°44' E 014°00'0 0.0
2015-Jul-29 11:33N 40°44' E 014°00'0 0.0
2015-Jul-29 10:33N 40°44' E 014°00'0 0.0
2015-Jul-29 09:33N 40°44' E 014°00'4 4.4
2015-Jul-29 08:33N 40°41' E 014°04'9 8.6
2015-Jul-29 07:32N 40°37' E 014°14'  
2015-Jul-26 12:10N 38°25' E 014°58'15 0.6
2015-Jul-25 13:25N 38°38' E 015°05'122 7.6
2015-Jul-24 21:27N 40°32' E 014°11'2 2.7
2015-Jul-24 20:33N 40°34' E 014°13'0 0.0
2015-Jul-24 19:33N 40°34' E 014°13'0 0.0
2015-Jul-24 18:29N 40°34' E 014°13'0 0.0
2015-Jul-24 17:33N 40°34' E 014°13'0 0.0
2015-Jul-24 16:33N 40°34' E 014°13'0 0.0
2015-Jul-24 15:32N 40°34' E 014°13'1 0.9
2015-Jul-24 14:28N 40°34' E 014°12'2 2.0
2015-Jul-24 13:31N 40°32' E 014°11'5 0.9
2015-Jul-24 07:33N 40°34' E 014°05'1312.9
2015-Jul-24 06:32N 40°39' E 013°49'1413.3
2015-Jul-24 05:29N 40°43' E 013°31'  
Track history (hours):
 
Tides and Currents Weather Stations Pressure Air Temp Water Temp Dewpoint Dewpoint Depression Visibility Wind Speed Wind Dir Waves Ship Positions

Axantha II

Last reported at 2015-Aug-01 13:19 UTC. Time now 2015-Aug-01 18:14 UTC.
Position N 43°04' E 009°49'.

Length 43 m; draft 2.8 m.

Type: Pleasure craft. MMSI: 255804580.

Date/timePositionNaut miles runAvg speedWind from/ knotsBaromVisibWave heightAir tempDewpointWater temp
2015-Aug-01 13:19N 43°04' E 009°49'0 0.0
2015-Aug-01 12:33N 43°04' E 009°49'69 1.5
2015-Jul-30 15:30N 42°21' E 011°02'149 7.9
2015-Jul-29 20:29N 40°51' E 013°42'1010.8
2015-Jul-29 19:33N 40°47' E 013°54'5 5.3
2015-Jul-29 18:33N 40°44' E 014°00'0 0.0
2015-Jul-29 17:33N 40°44' E 014°00'0 0.0
2015-Jul-29 16:33N 40°44' E 014°00'0 0.0
2015-Jul-29 15:33N 40°44' E 014°00'0 0.0
2015-Jul-29 14:33N 40°44' E 014°00'0 0.0
2015-Jul-29 13:33N 40°44' E 014°00'0 0.0
2015-Jul-29 12:33N 40°44' E 014°00'0 0.0
2015-Jul-29 11:33N 40°44' E 014°00'0 0.0
2015-Jul-29 10:33N 40°44' E 014°00'0 0.0
2015-Jul-29 09:33N 40°44' E 014°00'4 4.4
2015-Jul-29 08:33N 40°41' E 014°04'9 8.6
2015-Jul-29 07:32N 40°37' E 014°14'  
2015-Jul-26 12:10N 38°25' E 014°58'15 0.6
2015-Jul-25 13:25N 38°38' E 015°05'122 7.6
2015-Jul-24 21:27N 40°32' E 014°11'2 2.7
2015-Jul-24 20:33N 40°34' E 014°13'0 0.0
2015-Jul-24 19:33N 40°34' E 014°13'0 0.0
2015-Jul-24 18:29N 40°34' E 014°13'0 0.0
2015-Jul-24 17:33N 40°34' E 014°13'0 0.0
2015-Jul-24 16:33N 40°34' E 014°13'0 0.0
2015-Jul-24 15:32N 40°34' E 014°13'1 0.9
2015-Jul-24 14:28N 40°34' E 014°12'2 2.0
2015-Jul-24 13:31N 40°32' E 014°11'5 0.9
2015-Jul-24 07:33N 40°34' E 014°05'1312.9
2015-Jul-24 06:32N 40°39' E 013°49'1413.3
2015-Jul-24 05:29N 40°43' E 013°31'  

Dump ship's entire track history